sensor_id;sensor_type;location;lat;lon;timestamp;pressure;altitude;pressure_sealevel;temperature;humidity
55317;BME280;41178;48.956;8.130;2023-07-16T00:02:39;99636.34;;;21.79;55.33
55317;BME280;41178;48.956;8.130;2023-07-16T00:07:41;99670.50;;;21.54;54.87
55317;BME280;41178;48.956;8.130;2023-07-16T00:12:43;99675.88;;;20.67;57.02
55317;BME280;41178;48.956;8.130;2023-07-16T00:17:45;99626.41;;;21.57;55.30
55317;BME280;41178;48.956;8.130;2023-07-16T00:22:47;99604.00;;;21.88;54.08
55317;BME280;41178;48.956;8.130;2023-07-16T00:27:49;99692.69;;;20.64;56.13
55317;BME280;41178;48.956;8.130;2023-07-16T00:32:51;99730.34;;;19.94;56.70
55317;BME280;41178;48.956;8.130;2023-07-16T00:37:52;99741.78;;;19.34;57.21
55317;BME280;41178;48.956;8.130;2023-07-16T00:42:54;99642.13;;;21.45;53.22
55317;BME280;41178;48.956;8.130;2023-07-16T00:47:57;99690.19;;;20.80;54.11
55317;BME280;41178;48.956;8.130;2023-07-16T00:53:00;99692.56;;;21.26;52.72
55317;BME280;41178;48.956;8.130;2023-07-16T00:58:04;99698.59;;;20.78;54.94
55317;BME280;41178;48.956;8.130;2023-07-16T01:03:12;99763.81;;;19.83;56.56
55317;BME280;41178;48.956;8.130;2023-07-16T01:08:21;99745.22;;;19.29;57.93
55317;BME280;41178;48.956;8.130;2023-07-16T01:13:28;99756.88;;;19.58;55.32
55317;BME280;41178;48.956;8.130;2023-07-16T01:18:30;99674.50;;;20.87;53.00
55317;BME280;41178;48.956;8.130;2023-07-16T01:34:19;99720.34;;;21.00;51.31
55317;BME280;41178;48.956;8.130;2023-07-16T01:39:22;99755.41;;;20.58;52.23
55317;BME280;41178;48.956;8.130;2023-07-16T01:44:24;99747.56;;;19.54;54.96
55317;BME280;41178;48.956;8.130;2023-07-16T01:49:26;99735.28;;;19.98;53.58
55317;BME280;41178;48.956;8.130;2023-07-16T01:54:27;99774.81;;;19.60;54.05
55317;BME280;41178;48.956;8.130;2023-07-16T01:59:29;99777.38;;;19.66;54.13
55317;BME280;41178;48.956;8.130;2023-07-16T02:04:31;99774.28;;;19.91;53.09
55317;BME280;41178;48.956;8.130;2023-07-16T02:09:33;99748.66;;;20.38;53.04
55317;BME280;41178;48.956;8.130;2023-07-16T02:14:36;99750.16;;;19.78;54.22
55317;BME280;41178;48.956;8.130;2023-07-16T02:19:38;99768.69;;;19.81;53.74
55317;BME280;41178;48.956;8.130;2023-07-16T02:24:40;99722.97;;;20.73;52.13
55317;BME280;41178;48.956;8.130;2023-07-16T02:29:42;99767.28;;;19.50;54.67
55317;BME280;41178;48.956;8.130;2023-07-16T02:34:44;99775.75;;;19.53;54.05
55317;BME280;41178;48.956;8.130;2023-07-16T02:39:46;99793.53;;;19.15;54.80
55317;BME280;41178;48.956;8.130;2023-07-16T02:44:50;99814.22;;;18.93;55.06
55317;BME280;41178;48.956;8.130;2023-07-16T02:49:52;99812.28;;;19.17;54.14
55317;BME280;41178;48.956;8.130;2023-07-16T02:54:54;99693.84;;;20.91;51.84
55317;BME280;41178;48.956;8.130;2023-07-16T02:59:56;99812.00;;;19.59;53.50
55317;BME280;41178;48.956;8.130;2023-07-16T03:04:57;99796.22;;;19.73;53.49
55317;BME280;41178;48.956;8.130;2023-07-16T03:10:00;99770.81;;;20.13;52.61
55317;BME280;41178;48.956;8.130;2023-07-16T03:15:02;99820.44;;;19.91;52.35
55317;BME280;41178;48.956;8.130;2023-07-16T03:20:04;99791.69;;;20.46;51.10
55317;BME280;41178;48.956;8.130;2023-07-16T03:25:07;99849.00;;;19.94;51.28
55317;BME280;41178;48.956;8.130;2023-07-16T03:30:09;99802.84;;;20.11;52.27
55317;BME280;41178;48.956;8.130;2023-07-16T03:35:11;99831.06;;;20.10;52.14
55317;BME280;41178;48.956;8.130;2023-07-16T03:40:23;99803.88;;;21.05;49.87
55317;BME280;41178;48.956;8.130;2023-07-16T03:45:25;99839.63;;;20.36;51.33
55317;BME280;41178;48.956;8.130;2023-07-16T03:50:27;99848.13;;;20.22;51.42
55317;BME280;41178;48.956;8.130;2023-07-16T03:55:29;99894.78;;;19.33;53.40
55317;BME280;41178;48.956;8.130;2023-07-16T04:00:31;99818.56;;;21.04;50.30
55317;BME280;41178;48.956;8.130;2023-07-16T04:05:34;99897.59;;;19.95;52.11
55317;BME280;41178;48.956;8.130;2023-07-16T04:10:36;99873.78;;;20.65;51.08
55317;BME280;41178;48.956;8.130;2023-07-16T04:15:38;99847.06;;;21.23;50.49
55317;BME280;41178;48.956;8.130;2023-07-16T04:20:39;99914.44;;;20.09;52.24
55317;BME280;41178;48.956;8.130;2023-07-16T04:25:41;99894.44;;;20.49;51.54
55317;BME280;41178;48.956;8.130;2023-07-16T04:30:43;99905.50;;;19.97;53.43
55317;BME280;41178;48.956;8.130;2023-07-16T04:35:45;99892.03;;;20.02;53.25
55317;BME280;41178;48.956;8.130;2023-07-16T04:40:47;99840.78;;;20.40;53.07
55317;BME280;41178;48.956;8.130;2023-07-16T04:45:48;99835.09;;;20.58;52.64
55317;BME280;41178;48.956;8.130;2023-07-16T04:50:51;99819.16;;;21.88;50.27
55317;BME280;41178;48.956;8.130;2023-07-16T04:55:53;99948.91;;;19.80;54.09
55317;BME280;41178;48.956;8.130;2023-07-16T05:00:55;99912.09;;;20.30;52.98
55317;BME280;41178;48.956;8.130;2023-07-16T05:05:57;99893.00;;;20.42;53.46
55317;BME280;41178;48.956;8.130;2023-07-16T05:10:59;99934.50;;;20.37;53.19
55317;BME280;41178;48.956;8.130;2023-07-16T05:16:01;99899.16;;;20.54;53.47
55317;BME280;41178;48.956;8.130;2023-07-16T05:21:03;99940.41;;;20.17;53.85
55317;BME280;41178;48.956;8.130;2023-07-16T05:26:04;99909.50;;;20.06;54.79
55317;BME280;41178;48.956;8.130;2023-07-16T05:31:06;99869.09;;;21.22;51.91
55317;BME280;41178;48.956;8.130;2023-07-16T05:36:08;99891.41;;;20.63;52.79
55317;BME280;41178;48.956;8.130;2023-07-16T05:41:10;99930.53;;;20.28;53.31
55317;BME280;41178;48.956;8.130;2023-07-16T05:46:12;99890.97;;;20.88;52.95
55317;BME280;41178;48.956;8.130;2023-07-16T05:51:14;99970.72;;;19.33;54.78
55317;BME280;41178;48.956;8.130;2023-07-16T05:56:16;99920.16;;;20.42;52.94
55317;BME280;41178;48.956;8.130;2023-07-16T06:01:18;99967.97;;;20.26;52.72
55317;BME280;41178;48.956;8.130;2023-07-16T06:06:20;99836.72;;;21.70;50.98
55317;BME280;41178;48.956;8.130;2023-07-16T06:11:22;99899.69;;;21.07;51.84
55317;BME280;41178;48.956;8.130;2023-07-16T06:16:24;99921.94;;;21.04;51.76
55317;BME280;41178;48.956;8.130;2023-07-16T06:21:26;99946.75;;;20.23;53.04
55317;BME280;41178;48.956;8.130;2023-07-16T06:26:27;99934.72;;;20.53;52.59
55317;BME280;41178;48.956;8.130;2023-07-16T06:31:29;99864.50;;;21.99;49.64
55317;BME280;41178;48.956;8.130;2023-07-16T06:36:31;99926.50;;;21.37;50.26
55317;BME280;41178;48.956;8.130;2023-07-16T06:41:33;99979.16;;;20.41;51.93
55317;BME280;41178;48.956;8.130;2023-07-16T06:46:35;99938.53;;;21.69;49.13
55317;BME280;41178;48.956;8.130;2023-07-16T06:51:36;99927.00;;;21.84;49.24
55317;BME280;41178;48.956;8.130;2023-07-16T06:56:38;99958.94;;;21.66;48.24
55317;BME280;41178;48.956;8.130;2023-07-16T07:01:41;99983.84;;;21.53;49.15
55317;BME280;41178;48.956;8.130;2023-07-16T07:06:42;99931.91;;;22.09;47.95
55317;BME280;41178;48.956;8.130;2023-07-16T07:11:44;99941.06;;;22.30;47.62
55317;BME280;41178;48.956;8.130;2023-07-16T07:16:46;100000.41;;;21.51;47.93
55317;BME280;41178;48.956;8.130;2023-07-16T07:21:48;100024.78;;;20.27;50.52
55317;BME280;41178;48.956;8.130;2023-07-16T07:26:50;99928.22;;;22.52;46.85
55317;BME280;41178;48.956;8.130;2023-07-16T07:31:52;100014.34;;;21.16;48.50
55317;BME280;41178;48.956;8.130;2023-07-16T07:36:54;99937.13;;;20.83;48.10
55317;BME280;41178;48.956;8.130;2023-07-16T07:41:56;99993.25;;;21.45;46.43
55317;BME280;41178;48.956;8.130;2023-07-16T07:46:58;100029.63;;;20.71;47.07
55317;BME280;41178;48.956;8.130;2023-07-16T07:52:00;100009.63;;;21.11;46.47
55317;BME280;41178;48.956;8.130;2023-07-16T07:57:03;100042.34;;;20.65;47.97
55317;BME280;41178;48.956;8.130;2023-07-16T08:02:07;100062.34;;;20.59;47.14
55317;BME280;41178;48.956;8.130;2023-07-16T08:07:08;99957.66;;;21.74;47.03
55317;BME280;41178;48.956;8.130;2023-07-16T08:12:10;99981.59;;;21.94;45.64
55317;BME280;41178;48.956;8.130;2023-07-16T08:17:15;99964.28;;;22.05;45.10
55317;BME280;41178;48.956;8.130;2023-07-16T08:22:17;100041.50;;;20.07;46.29
55317;BME280;41178;48.956;8.130;2023-07-16T08:27:18;100010.41;;;19.86;46.74
55317;BME280;41178;48.956;8.130;2023-07-16T08:32:21;99963.59;;;22.15;44.09
55317;BME280;41178;48.956;8.130;2023-07-16T08:37:23;100014.28;;;21.50;44.52
55317;BME280;41178;48.956;8.130;2023-07-16T08:42:25;99949.28;;;21.81;44.96
55317;BME280;41178;48.956;8.130;2023-07-16T08:47:27;100015.28;;;20.42;45.07
55317;BME280;41178;48.956;8.130;2023-07-16T08:52:29;100020.09;;;20.68;44.81
55317;BME280;41178;48.956;8.130;2023-07-16T08:57:31;99993.94;;;21.79;42.12
55317;BME280;41178;48.956;8.130;2023-07-16T09:02:33;99979.94;;;22.47;41.81
55317;BME280;41178;48.956;8.130;2023-07-16T09:07:35;99986.53;;;22.51;42.02
55317;BME280;41178;48.956;8.130;2023-07-16T09:12:43;100022.50;;;21.77;43.77
55317;BME280;41178;48.956;8.130;2023-07-16T09:17:48;99974.44;;;22.42;42.18
55317;BME280;41178;48.956;8.130;2023-07-16T09:22:53;100042.13;;;21.79;43.07
55317;BME280;41178;48.956;8.130;2023-07-16T09:28:02;99931.56;;;23.07;41.45
55317;BME280;41178;48.956;8.130;2023-07-16T09:38:14;99975.56;;;22.79;42.03
55317;BME280;41178;48.956;8.130;2023-07-16T09:43:16;99985.34;;;22.69;40.55
55317;BME280;41178;48.956;8.130;2023-07-16T09:48:18;100041.34;;;22.28;41.18
55317;BME280;41178;48.956;8.130;2023-07-16T09:53:20;100058.97;;;22.15;40.74
55317;BME280;41178;48.956;8.130;2023-07-16T09:58:23;99951.22;;;21.58;41.92
55317;BME280;41178;48.956;8.130;2023-07-16T10:03:26;99925.19;;;22.92;41.15
55317;BME280;41178;48.956;8.130;2023-07-16T10:08:33;99985.63;;;22.41;40.47
55317;BME280;41178;48.956;8.130;2023-07-16T10:13:37;100016.53;;;22.84;40.14
55317;BME280;41178;48.956;8.130;2023-07-16T10:18:50;99971.06;;;23.42;40.86
55317;BME280;41178;48.956;8.130;2023-07-16T10:23:58;100007.88;;;22.60;40.46
55317;BME280;41178;48.956;8.130;2023-07-16T10:29:04;99966.66;;;22.94;41.68
55317;BME280;41178;48.956;8.130;2023-07-16T10:34:06;99970.13;;;23.85;39.93
55317;BME280;41178;48.956;8.130;2023-07-16T10:39:09;100010.66;;;22.65;41.15
55317;BME280;41178;48.956;8.130;2023-07-16T10:44:14;99918.84;;;23.29;40.05
55317;BME280;41178;48.956;8.130;2023-07-16T10:49:26;99968.88;;;23.44;40.12
55317;BME280;41178;48.956;8.130;2023-07-16T10:54:28;99986.19;;;22.75;40.49
55317;BME280;41178;48.956;8.130;2023-07-16T10:59:30;99964.25;;;23.02;40.59
55317;BME280;41178;48.956;8.130;2023-07-16T11:06:23;99892.25;;;20.46;43.75
55317;BME280;41178;48.956;8.130;2023-07-16T11:11:29;99886.13;;;21.56;43.52
55317;BME280;41178;48.956;8.130;2023-07-16T11:16:36;99896.31;;;21.22;43.27
55317;BME280;41178;48.956;8.130;2023-07-16T11:21:38;99905.34;;;21.45;43.07
55317;BME280;41178;48.956;8.130;2023-07-16T11:26:40;99854.41;;;22.27;42.67
55317;BME280;41178;48.956;8.130;2023-07-16T11:31:42;99828.91;;;22.96;41.99
55317;BME280;41178;48.956;8.130;2023-07-16T11:36:44;99864.84;;;22.45;41.74
55317;BME280;41178;48.956;8.130;2023-07-16T11:41:58;99891.19;;;21.97;42.41
55317;BME280;41178;48.956;8.130;2023-07-16T11:47:01;99888.69;;;22.23;41.27
55317;BME280;41178;48.956;8.130;2023-07-16T11:52:03;99912.09;;;21.91;41.55
55317;BME280;41178;48.956;8.130;2023-07-16T11:57:06;99877.41;;;22.46;41.50
55317;BME280;41178;48.956;8.130;2023-07-16T12:02:08;99898.56;;;22.61;41.20
55317;BME280;41178;48.956;8.130;2023-07-16T12:07:10;99853.13;;;22.87;41.53
55317;BME280;41178;48.956;8.130;2023-07-16T12:12:11;99908.59;;;22.56;41.05
55317;BME280;41178;48.956;8.130;2023-07-16T12:17:13;99902.72;;;22.42;41.18
55317;BME280;41178;48.956;8.130;2023-07-16T12:22:17;99889.31;;;22.67;40.47
55317;BME280;41178;48.956;8.130;2023-07-16T12:27:19;99831.38;;;24.17;39.10
55317;BME280;41178;48.956;8.130;2023-07-16T12:32:22;99889.81;;;23.07;39.08
55317;BME280;41178;48.956;8.130;2023-07-16T12:37:23;99892.47;;;23.60;39.18
55317;BME280;41178;48.956;8.130;2023-07-16T12:42:25;99877.22;;;23.01;39.61
55317;BME280;41178;48.956;8.130;2023-07-16T12:47:27;99860.84;;;23.90;38.80
55317;BME280;41178;48.956;8.130;2023-07-16T12:52:29;99828.56;;;24.59;37.36
55317;BME280;41178;48.956;8.130;2023-07-16T12:57:30;99914.28;;;23.50;38.48
55317;BME280;41178;48.956;8.130;2023-07-16T13:02:33;99848.84;;;23.80;37.27
55317;BME280;41178;48.956;8.130;2023-07-16T13:07:35;99875.38;;;24.31;37.16
55317;BME280;41178;48.956;8.130;2023-07-16T13:12:39;99931.50;;;23.02;38.15
55317;BME280;41178;48.956;8.130;2023-07-16T13:17:41;99894.97;;;24.85;37.07
55317;BME280;41178;48.956;8.130;2023-07-16T13:22:43;99883.31;;;24.33;36.86
55317;BME280;41178;48.956;8.130;2023-07-16T13:27:45;99854.31;;;23.80;36.88
55317;BME280;41178;48.956;8.130;2023-07-16T13:32:47;99831.53;;;24.67;37.29
55317;BME280;41178;48.956;8.130;2023-07-16T13:37:50;99885.19;;;23.07;39.51
55317;BME280;41178;48.956;8.130;2023-07-16T13:42:52;99835.19;;;24.01;37.82
55317;BME280;41178;48.956;8.130;2023-07-16T13:47:54;99808.81;;;25.42;35.69
55317;BME280;41178;48.956;8.130;2023-07-16T13:52:57;99857.88;;;24.17;36.59
55317;BME280;41178;48.956;8.130;2023-07-16T13:58:03;99892.56;;;23.86;37.01
55317;BME280;41178;48.956;8.130;2023-07-16T14:03:04;99870.44;;;24.03;36.35
55317;BME280;41178;48.956;8.130;2023-07-16T14:08:06;99865.78;;;24.70;36.10
55317;BME280;41178;48.956;8.130;2023-07-16T14:13:09;99853.59;;;23.27;39.19
55317;BME280;41178;48.956;8.130;2023-07-16T14:18:11;99796.66;;;23.87;37.88
55317;BME280;41178;48.956;8.130;2023-07-16T14:23:12;99769.56;;;24.27;39.05
55317;BME280;41178;48.956;8.130;2023-07-16T14:28:14;99773.19;;;25.42;37.93
55317;BME280;41178;48.956;8.130;2023-07-16T14:33:16;99814.78;;;25.89;35.43
55317;BME280;41178;48.956;8.130;2023-07-16T14:38:18;99862.50;;;24.37;37.14
55317;BME280;41178;48.956;8.130;2023-07-16T14:43:20;99878.38;;;25.91;35.16
55317;BME280;41178;48.956;8.130;2023-07-16T14:48:21;99829.09;;;25.81;35.74
55317;BME280;41178;48.956;8.130;2023-07-16T14:53:24;99835.84;;;25.54;36.50
55317;BME280;41178;48.956;8.130;2023-07-16T14:58:26;99833.66;;;24.91;35.92
55317;BME280;41178;48.956;8.130;2023-07-16T15:03:27;99802.19;;;25.88;36.08
55317;BME280;41178;48.956;8.130;2023-07-16T15:08:29;99799.22;;;24.80;37.21
55317;BME280;41178;48.956;8.130;2023-07-16T15:13:31;99759.44;;;25.53;36.16
55317;BME280;41178;48.956;8.130;2023-07-16T15:18:33;99774.53;;;25.00;36.44
55317;BME280;41178;48.956;8.130;2023-07-16T15:23:35;99790.56;;;24.52;36.83
55317;BME280;41178;48.956;8.130;2023-07-16T15:28:37;99744.25;;;25.65;35.82
55317;BME280;41178;48.956;8.130;2023-07-16T15:33:39;99814.06;;;24.63;36.80
55317;BME280;41178;48.956;8.130;2023-07-16T15:38:41;99798.03;;;25.01;36.21
55317;BME280;41178;48.956;8.130;2023-07-16T15:43:43;99783.44;;;25.66;36.29
55317;BME280;41178;48.956;8.130;2023-07-16T15:48:46;99797.56;;;24.89;37.04
55317;BME280;41178;48.956;8.130;2023-07-16T15:53:53;99773.72;;;25.44;36.92
55317;BME280;41178;48.956;8.130;2023-07-16T15:58:55;99769.03;;;25.50;37.03
55317;BME280;41178;48.956;8.130;2023-07-16T16:03:56;99787.81;;;24.52;37.72
55317;BME280;41178;48.956;8.130;2023-07-16T16:08:58;99755.53;;;25.24;36.77
55317;BME280;41178;48.956;8.130;2023-07-16T16:14:00;99788.34;;;24.54;37.56
55317;BME280;41178;48.956;8.130;2023-07-16T16:19:02;99741.84;;;24.59;37.41
55317;BME280;41178;48.956;8.130;2023-07-16T16:24:05;99723.72;;;25.28;37.01
55317;BME280;41178;48.956;8.130;2023-07-16T16:29:06;99723.75;;;25.18;36.89
55317;BME280;41178;48.956;8.130;2023-07-16T16:34:08;99712.84;;;25.87;37.02
55317;BME280;41178;48.956;8.130;2023-07-16T16:39:10;99755.78;;;26.26;36.37
55317;BME280;41178;48.956;8.130;2023-07-16T16:44:12;99740.81;;;26.62;35.82
55317;BME280;41178;48.956;8.130;2023-07-16T16:49:13;99781.16;;;25.78;35.89
55317;BME280;41178;48.956;8.130;2023-07-16T16:54:15;99768.91;;;26.29;35.56
55317;BME280;41178;48.956;8.130;2023-07-16T16:59:17;99779.00;;;26.58;35.44
55317;BME280;41178;48.956;8.130;2023-07-16T17:04:19;99808.09;;;25.66;36.58
55317;BME280;41178;48.956;8.130;2023-07-16T17:09:20;99758.47;;;26.02;36.64
55317;BME280;41178;48.956;8.130;2023-07-16T17:14:22;99777.19;;;25.95;36.21
55317;BME280;41178;48.956;8.130;2023-07-16T17:19:24;99780.06;;;25.79;36.07
55317;BME280;41178;48.956;8.130;2023-07-16T17:24:26;99768.47;;;26.65;35.60
55317;BME280;41178;48.956;8.130;2023-07-16T17:29:27;99804.22;;;26.07;35.50
55317;BME280;41178;48.956;8.130;2023-07-16T17:34:32;99804.19;;;25.77;36.34
55317;BME280;41178;48.956;8.130;2023-07-16T17:39:35;99775.75;;;26.56;35.28
55317;BME280;41178;48.956;8.130;2023-07-16T17:44:37;99789.16;;;25.30;36.80
55317;BME280;41178;48.956;8.130;2023-07-16T17:49:39;99786.50;;;25.94;35.77
55317;BME280;41178;48.956;8.130;2023-07-16T17:54:41;99773.16;;;26.11;36.43
55317;BME280;41178;48.956;8.130;2023-07-16T17:59:44;99786.78;;;25.92;36.77
55317;BME280;41178;48.956;8.130;2023-07-16T18:04:46;99775.81;;;25.92;36.80
55317;BME280;41178;48.956;8.130;2023-07-16T18:09:48;99801.09;;;26.18;36.85
55317;BME280;41178;48.956;8.130;2023-07-16T18:14:54;99759.00;;;26.57;36.85
55317;BME280;41178;48.956;8.130;2023-07-16T18:19:56;99813.00;;;24.49;38.79
55317;BME280;41178;48.956;8.130;2023-07-16T18:24:59;99753.09;;;26.16;38.00
55317;BME280;41178;48.956;8.130;2023-07-16T18:30:03;99777.59;;;26.07;37.49
55317;BME280;41178;48.956;8.130;2023-07-16T18:35:09;99745.34;;;26.95;36.50
55317;BME280;41178;48.956;8.130;2023-07-16T18:40:11;99774.94;;;26.55;36.94
55317;BME280;41178;48.956;8.130;2023-07-16T18:45:13;99756.81;;;26.54;37.58
55317;BME280;41178;48.956;8.130;2023-07-16T18:50:15;99770.28;;;26.99;37.05
55317;BME280;41178;48.956;8.130;2023-07-16T18:55:17;99805.00;;;26.66;37.32
55317;BME280;41178;48.956;8.130;2023-07-16T19:00:21;99804.03;;;26.27;37.75
55317;BME280;41178;48.956;8.130;2023-07-16T19:05:23;99801.53;;;26.01;38.00
55317;BME280;41178;48.956;8.130;2023-07-16T19:10:25;99791.94;;;27.01;37.14
55317;BME280;41178;48.956;8.130;2023-07-16T19:15:27;99815.28;;;26.79;37.27
55317;BME280;41178;48.956;8.130;2023-07-16T19:20:29;99802.81;;;27.11;36.69
55317;BME280;41178;48.956;8.130;2023-07-16T19:25:31;99813.97;;;26.95;37.16
55317;BME280;41178;48.956;8.130;2023-07-16T19:30:32;99782.88;;;26.57;38.33
55317;BME280;41178;48.956;8.130;2023-07-16T19:35:34;99811.06;;;25.70;39.43
55317;BME280;41178;48.956;8.130;2023-07-16T19:40:36;99803.59;;;26.44;38.60
55317;BME280;41178;48.956;8.130;2023-07-16T19:45:38;99810.38;;;26.52;38.25
55317;BME280;41178;48.956;8.130;2023-07-16T19:50:41;99814.91;;;26.62;38.05
55317;BME280;41178;48.956;8.130;2023-07-16T19:55:49;99830.31;;;26.33;38.51
55317;BME280;41178;48.956;8.130;2023-07-16T20:00:51;99795.69;;;25.39;39.58
55317;BME280;41178;48.956;8.130;2023-07-16T20:05:53;99824.16;;;24.78;40.32
55317;BME280;41178;48.956;8.130;2023-07-16T20:10:55;99854.56;;;23.89;41.23
55317;BME280;41178;48.956;8.130;2023-07-16T20:15:57;99798.47;;;23.20;44.06
55317;BME280;41178;48.956;8.130;2023-07-16T20:20:59;99793.03;;;23.40;44.18
55317;BME280;41178;48.956;8.130;2023-07-16T20:26:01;99800.41;;;24.58;42.21
55317;BME280;41178;48.956;8.130;2023-07-16T20:31:05;99811.94;;;24.34;42.75
55317;BME280;41178;48.956;8.130;2023-07-16T20:36:07;99814.41;;;23.79;42.86
55317;BME280;41178;48.956;8.130;2023-07-16T20:41:09;99853.91;;;23.36;41.62
55317;BME280;41178;48.956;8.130;2023-07-16T20:46:12;99813.31;;;24.11;40.77
55317;BME280;41178;48.956;8.130;2023-07-16T20:51:13;99866.19;;;23.33;40.73
55317;BME280;41178;48.956;8.130;2023-07-16T20:56:16;99887.22;;;23.38;40.43
55317;BME280;41178;48.956;8.130;2023-07-16T21:01:17;99858.50;;;25.05;40.18
55317;BME280;41178;48.956;8.130;2023-07-16T21:06:20;99888.44;;;24.65;41.86
55317;BME280;41178;48.956;8.130;2023-07-16T21:11:23;99866.03;;;24.73;42.22
55317;BME280;41178;48.956;8.130;2023-07-16T21:16:24;99870.09;;;24.81;42.05
55317;BME280;41178;48.956;8.130;2023-07-16T21:21:26;99880.59;;;24.17;42.57
55317;BME280;41178;48.956;8.130;2023-07-16T21:26:28;99888.03;;;22.43;45.41
55317;BME280;41178;48.956;8.130;2023-07-16T21:31:30;99813.25;;;23.50;43.61
55317;BME280;41178;48.956;8.130;2023-07-16T21:36:32;99922.69;;;23.38;42.62
55317;BME280;41178;48.956;8.130;2023-07-16T21:41:33;99877.00;;;24.32;41.61
55317;BME280;41178;48.956;8.130;2023-07-16T21:46:35;99951.94;;;22.25;43.61
55317;BME280;41178;48.956;8.130;2023-07-16T21:51:37;99877.50;;;24.76;40.50
55317;BME280;41178;48.956;8.130;2023-07-16T21:56:38;99883.00;;;24.19;41.77
55317;BME280;41178;48.956;8.130;2023-07-16T22:01:40;99917.56;;;23.47;43.06
55317;BME280;41178;48.956;8.130;2023-07-16T22:06:42;99941.97;;;21.86;45.88
55317;BME280;41178;48.956;8.130;2023-07-16T22:11:44;99931.75;;;22.96;43.57
55317;BME280;41178;48.956;8.130;2023-07-16T22:16:46;99891.88;;;22.84;44.20
55317;BME280;41178;48.956;8.130;2023-07-16T22:21:48;99896.59;;;23.62;42.68
55317;BME280;41178;48.956;8.130;2023-07-16T22:26:49;99888.84;;;22.43;44.38
55317;BME280;41178;48.956;8.130;2023-07-16T22:31:51;99874.28;;;22.65;44.19
55317;BME280;41178;48.956;8.130;2023-07-16T22:36:53;99928.47;;;22.94;43.61
55317;BME280;41178;48.956;8.130;2023-07-16T22:41:55;99924.16;;;22.60;44.35
55317;BME280;41178;48.956;8.130;2023-07-16T22:46:57;99967.06;;;21.22;46.38
55317;BME280;41178;48.956;8.130;2023-07-16T22:51:58;99910.19;;;22.51;44.72
55317;BME280;41178;48.956;8.130;2023-07-16T22:57:00;99934.78;;;23.52;43.04
55317;BME280;41178;48.956;8.130;2023-07-16T23:02:02;99934.75;;;23.42;43.33
55317;BME280;41178;48.956;8.130;2023-07-16T23:07:03;99958.81;;;23.50;43.33
55317;BME280;41178;48.956;8.130;2023-07-16T23:12:05;99953.16;;;23.14;43.82
55317;BME280;41178;48.956;8.130;2023-07-16T23:17:07;99979.81;;;22.59;44.66
55317;BME280;41178;48.956;8.130;2023-07-16T23:22:09;99975.41;;;21.99;45.58
55317;BME280;41178;48.956;8.130;2023-07-16T23:27:10;99925.22;;;21.94;46.59
55317;BME280;41178;48.956;8.130;2023-07-16T23:32:13;99935.41;;;22.04;46.32
55317;BME280;41178;48.956;8.130;2023-07-16T23:37:15;99891.47;;;22.65;45.60
55317;BME280;41178;48.956;8.130;2023-07-16T23:42:17;99950.34;;;21.13;47.54
55317;BME280;41178;48.956;8.130;2023-07-16T23:47:18;99899.34;;;21.70;46.69
55317;BME280;41178;48.956;8.130;2023-07-16T23:52:20;99912.50;;;21.34;47.63
55317;BME280;41178;48.956;8.130;2023-07-16T23:57:22;99947.94;;;21.17;47.41
